Historyczne dane pomiarowe

Dodano dane terminowe – wersja testowa.

Dane z okresu 1951-2019

Wersja bazy: 1.34 [2019-03-16, lista zmian], aktualizacja planowana na 2019-04-15

Dane meteo z obszaru Polski uzyskane na podstawie danych udostępnionych przez Instytut Meteorologii i Gospodarki Wodnej – Państwowy Instytut Badawczy.

 

Wybierz Datę:    

       

TemperaturaWilgotnośćWiatrCiśnienieOpadyŚniegCzas trwania zjawisk
 Stacja t tx tn tng RH VA  wxwx mslp ppp RRR   cm mm wxwxwxwxwxwxwx
1956-10-10 6.9 10.4 2.6- 93.5- 6.3 2.7---- 0.8------------
1956-10-09 8.5 11.4 4.3- 92.3- 6.0 7.0---- 0.5------------
1956-10-08 6.1 9.1 5.0- 90.3- 6.7 2.0---- 1.2------------
1956-10-07 9.4 11.2 8.3- 95.5- 7.7 10.7---- 5.5------------
1956-10-06 8.9 11.0 4.5- 82.0- 7.3 1.7---- 1.9------------
1956-10-05 7.6 11.6 5.8- 88.8- 8.0 2.3---- 2.6------------
1956-10-04 9.3 14.5 5.6- 91.8- 8.0 2.3---- 2.3------------
1956-10-03 11.7 16.6 9.2- 89.3- 5.3 3.0---- 1.9------------
1956-10-02 15.2 21.5 9.6- 84.5- 6.0 3.0---- 20.3------------
1956-10-01 12.8 18.3 6.2- 91.8- 5.3 3.0---- 5.0------------
1956-09-30 12.4 19.0 9.5- 91.3- 2.0 2.3---- 0.0------------
1956-09-29 14.2 18.3 12.0- 79.0- 3.0 5.0---- 0.0------------
1956-09-28 15.9 18.6 14.1- 82.0- 8.0 3.0---- 0.8------------
1956-09-27 16.1 20.6 9.3- 77.3- 3.7 3.0---- 0.0------------
1956-09-26 14.4 21.2 6.7- 76.5- 0.3 4.3---- 0.0------------
1956-09-25 9.4 17.0 2.7- 74.5- 0.7 2.3---- 0.0------------
1956-09-24 8.5 14.5 5.0- 69.3- 1.3 3.7---- 0.0------------
1956-09-23 10.4 15.0 6.7- 73.3- 2.3 3.0---- 0.0------------
1956-09-22 12.4 15.9 7.4- 85.3- 3.0 3.0---- 0.0------------
1956-09-21 11.4 17.5 5.1- 80.0- 1.7 1.0---- 0.0------------
1956-09-20 11.2 16.1 6.1- 81.8- 5.3 0.3---- 0.0------------
1956-09-19 9.6 15.6 4.5- 83.3- 2.7 0.7---- 0.0------------
1956-09-18 12.0 14.5 9.6- 76.5- 4.3 4.0---- 0.0------------
1956-09-17 10.5 14.0 6.2- 74.5- 4.7 11.3---- 10.3------------
1956-09-16 11.6 14.8 5.6- 78.0- 6.0 6.0---- 6.6------------
1956-09-15 11.6 15.7 8.2- 80.3- 3.7 4.7---- 0.0------------
1956-09-14 11.8 15.3 8.0- 86.3- 2.7 0.0---- 1.4------------
1956-09-13 11.0 13.5 7.6- 80.0- 3.7 2.0---- 2.9------------
1956-09-12 11.7 16.1 8.7- 81.3- 5.3 5.0---- 0.8------------
1956-09-11 13.3 17.5 11.7- 89.0- 7.0 2.0---- 9.3------------
1956-09-10 14.7 17.3 11.1- 83.8- 5.3 1.7---- 0.0------------
1956-09-09 14.6 17.0 11.2- 85.5- 6.3 1.7---- 0.0------------
1956-09-08 14.4 18.8 12.0- 89.3- 4.7 0.7---- 1.4------------
1956-09-07 15.6 20.7 10.6- 85.8- 5.7 1.0---- 0.0------------
1956-09-06 14.1 18.2 7.6- 89.8- 2.7 4.3---- 0.0------------
1956-09-05 13.4 17.6 10.1- 85.8- 4.3 1.7---- 0.0------------
1956-09-04 15.6 19.5 14.2- 89.0- 8.0 1.7---- 7.5------------
1956-09-03 18.1 21.0 11.4- 80.8- 2.7 2.0---- 0.0------------
1956-09-02 15.9 18.4 8.8- 77.3- 1.0 3.3---- 0.0------------
1956-09-01 13.9 17.9 8.2- 67.3- 2.3 2.0---- 0.0------------
1956-08-31 12.3 17.7 8.2- 79.8- 2.3 2.3---- 0.0------------
1956-08-30 12.3 15.5 11.1- 90.8- 6.0 8.0---- 22.9------------
1956-08-29 16.4 20.4 12.8- 74.5- 3.3 5.7---- 14.0------------
1956-08-28 17.8 22.4 14.7- 69.0- 6.0 3.3---- 0.0------------
1956-08-27 17.6 22.9 10.3- 64.8- 4.7 3.7---- 0.0------------
1956-08-26 14.5 19.2 9.5- 71.5- 3.3 7.0---- 0.5------------
1956-08-25 13.7 16.6 8.0- 69.3- 6.3 8.3---- 4.5------------
1956-08-24 12.0 15.3 10.4- 91.0- 6.0 7.3---- 10.1------------
1956-08-23 13.9 15.7 7.9- 82.0- 7.7 4.0---- 15.5------------
1956-08-22 13.6 18.7 10.1- 81.8- 4.7 2.0---- 0.0------------
1956-08-21 13.9 18.8 9.9- 89.8- 5.0 0.0---- 0.0------------
1956-08-20 15.7 20.2 14.2- 83.8- 7.0 3.7---- 0.0------------
1956-08-19 17.3 24.1 14.5- 85.3- 5.3 1.7---- 0.5------------
1956-08-18 16.6 21.6 13.1- 86.8- 4.7 1.7---- 0.0------------
1956-08-17 14.3 16.5 7.2- 93.3- 7.0 0.7---- 0.8------------
1956-08-16 11.9 15.8 10.1- 86.0- 5.7 4.7---- 7.3------------
1956-08-15 13.6 19.3 10.1- 77.5- 4.7 8.0---- 0.4------------
1956-08-14 15.3 18.8 11.6- 87.8- 7.0 3.3---- 0.9------------
1956-08-13 14.2 18.0 10.4- 85.5- 5.7 0.7---- 0.2------------
1956-08-12 13.2 15.4 11.0- 86.8- 6.0 1.3---- 4.3------------
251.2 ms

 

Źródłem pochodzenia danych jest Instytut Meteorologii i Gospodarki Wodnej – Państwowy Instytut Badawczy. Dane Instytutu Meteorologii i Gospodarki Wodnej – Państwowego Instytutu Badawczego zostały przetworzone.

Dane źródłowe można odnaleźć na stronie https://dane.imgw.pl